sensor_id;sensor_type;location;lat;lon;timestamp;P1;durP1;ratioP1;P2;durP2;ratioP2
12222;SDS011;6174;49.058;8.524;2022-12-10T06:02:00;15.77;;;13.50;;
12222;SDS011;6174;49.058;8.524;2022-12-10T06:04:27;16.60;;;14.30;;
12222;SDS011;6174;49.058;8.524;2022-12-10T06:06:54;16.10;;;13.67;;
12222;SDS011;6174;49.058;8.524;2022-12-10T06:09:21;16.33;;;14.30;;
12222;SDS011;6174;49.058;8.524;2022-12-10T06:11:48;16.13;;;14.17;;
12222;SDS011;6174;49.058;8.524;2022-12-10T06:14:14;17.80;;;13.97;;
12222;SDS011;6174;49.058;8.524;2022-12-10T06:16:41;17.03;;;14.53;;
12222;SDS011;6174;49.058;8.524;2022-12-10T06:19:09;17.17;;;14.67;;
12222;SDS011;6174;49.058;8.524;2022-12-10T06:21:36;19.57;;;14.33;;
12222;SDS011;6174;49.058;8.524;2022-12-10T06:24:03;16.37;;;13.53;;
12222;SDS011;6174;49.058;8.524;2022-12-10T06:26:30;16.07;;;13.60;;
12222;SDS011;6174;49.058;8.524;2022-12-10T06:28:57;17.10;;;14.73;;
12222;SDS011;6174;49.058;8.524;2022-12-10T06:31:25;16.40;;;14.50;;
12222;SDS011;6174;49.058;8.524;2022-12-10T06:33:52;16.90;;;14.47;;
12222;SDS011;6174;49.058;8.524;2022-12-10T06:36:20;16.33;;;14.50;;
12222;SDS011;6174;49.058;8.524;2022-12-10T06:38:47;17.20;;;15.10;;
12222;SDS011;6174;49.058;8.524;2022-12-10T06:41:15;17.17;;;14.30;;
12222;SDS011;6174;49.058;8.524;2022-12-10T06:43:45;17.50;;;14.63;;
12222;SDS011;6174;49.058;8.524;2022-12-10T06:46:12;17.37;;;14.87;;
12222;SDS011;6174;49.058;8.524;2022-12-10T06:48:41;18.20;;;14.77;;
12222;SDS011;6174;49.058;8.524;2022-12-10T06:51:08;17.23;;;14.80;;
12222;SDS011;6174;49.058;8.524;2022-12-10T06:53:37;18.37;;;15.03;;
12222;SDS011;6174;49.058;8.524;2022-12-10T06:56:05;17.80;;;14.63;;
12222;SDS011;6174;49.058;8.524;2022-12-10T06:58:33;16.07;;;13.73;;
12222;SDS011;6174;49.058;8.524;2022-12-10T07:01:04;16.70;;;13.73;;
12222;SDS011;6174;49.058;8.524;2022-12-10T07:03:32;19.03;;;15.13;;
12222;SDS011;6174;49.058;8.524;2022-12-10T07:05:59;17.37;;;14.40;;
12222;SDS011;6174;49.058;8.524;2022-12-10T07:08:27;17.80;;;15.17;;
12222;SDS011;6174;49.058;8.524;2022-12-10T07:10:55;18.50;;;15.17;;
12222;SDS011;6174;49.058;8.524;2022-12-10T07:13:22;18.30;;;14.40;;
12222;SDS011;6174;49.058;8.524;2022-12-10T07:15:49;18.00;;;14.10;;
12222;SDS011;6174;49.058;8.524;2022-12-10T07:18:16;18.07;;;14.63;;
12222;SDS011;6174;49.058;8.524;2022-12-10T07:20:43;17.43;;;14.57;;
12222;SDS011;6174;49.058;8.524;2022-12-10T07:23:10;17.60;;;13.97;;
12222;SDS011;6174;49.058;8.524;2022-12-10T07:25:36;18.37;;;14.53;;
12222;SDS011;6174;49.058;8.524;2022-12-10T07:28:04;17.40;;;14.90;;
12222;SDS011;6174;49.058;8.524;2022-12-10T07:30:31;16.23;;;14.53;;
12222;SDS011;6174;49.058;8.524;2022-12-10T07:32:58;18.30;;;14.97;;
12222;SDS011;6174;49.058;8.524;2022-12-10T07:35:25;17.87;;;15.00;;
12222;SDS011;6174;49.058;8.524;2022-12-10T07:37:52;18.43;;;14.70;;
12222;SDS011;6174;49.058;8.524;2022-12-10T07:40:18;18.40;;;15.30;;
12222;SDS011;6174;49.058;8.524;2022-12-10T07:42:45;18.17;;;14.70;;
12222;SDS011;6174;49.058;8.524;2022-12-10T07:45:13;17.37;;;14.70;;
12222;SDS011;6174;49.058;8.524;2022-12-10T07:47:40;17.43;;;14.97;;
12222;SDS011;6174;49.058;8.524;2022-12-10T07:50:07;17.90;;;15.00;;
12222;SDS011;6174;49.058;8.524;2022-12-10T07:52:34;17.30;;;14.30;;
12222;SDS011;6174;49.058;8.524;2022-12-10T07:55:01;17.10;;;14.47;;
12222;SDS011;6174;49.058;8.524;2022-12-10T07:57:28;16.70;;;13.83;;
12222;SDS011;6174;49.058;8.524;2022-12-10T07:59:55;16.97;;;14.73;;
12222;SDS011;6174;49.058;8.524;2022-12-10T08:02:24;17.57;;;14.67;;
12222;SDS011;6174;49.058;8.524;2022-12-10T08:04:51;17.53;;;14.47;;
12222;SDS011;6174;49.058;8.524;2022-12-10T08:07:18;17.50;;;14.40;;
12222;SDS011;6174;49.058;8.524;2022-12-10T08:09:44;17.77;;;15.17;;
12222;SDS011;6174;49.058;8.524;2022-12-10T08:12:11;18.40;;;15.03;;
12222;SDS011;6174;49.058;8.524;2022-12-10T08:14:38;19.13;;;14.90;;
12222;SDS011;6174;49.058;8.524;2022-12-10T08:17:05;17.87;;;15.03;;
12222;SDS011;6174;49.058;8.524;2022-12-10T08:19:33;18.00;;;14.73;;
12222;SDS011;6174;49.058;8.524;2022-12-10T08:21:59;17.30;;;14.53;;
12222;SDS011;6174;49.058;8.524;2022-12-10T08:24:26;16.27;;;14.43;;
12222;SDS011;6174;49.058;8.524;2022-12-10T08:26:53;16.47;;;14.10;;
12222;SDS011;6174;49.058;8.524;2022-12-10T08:29:19;18.30;;;14.47;;
12222;SDS011;6174;49.058;8.524;2022-12-10T08:31:46;15.77;;;13.73;;
12222;SDS011;6174;49.058;8.524;2022-12-10T08:34:14;17.57;;;14.83;;
12222;SDS011;6174;49.058;8.524;2022-12-10T08:36:43;17.73;;;14.37;;
12222;SDS011;6174;49.058;8.524;2022-12-10T08:39:11;16.83;;;15.03;;
12222;SDS011;6174;49.058;8.524;2022-12-10T08:41:40;18.27;;;15.33;;
12222;SDS011;6174;49.058;8.524;2022-12-10T08:44:07;16.03;;;14.03;;
12222;SDS011;6174;49.058;8.524;2022-12-10T08:46:34;16.43;;;14.47;;
12222;SDS011;6174;49.058;8.524;2022-12-10T08:49:02;18.03;;;14.30;;
12222;SDS011;6174;49.058;8.524;2022-12-10T08:51:29;17.50;;;14.20;;
12222;SDS011;6174;49.058;8.524;2022-12-10T08:53:57;17.57;;;14.20;;
12222;SDS011;6174;49.058;8.524;2022-12-10T08:56:24;17.83;;;14.67;;
12222;SDS011;6174;49.058;8.524;2022-12-10T08:58:50;18.97;;;14.90;;
12222;SDS011;6174;49.058;8.524;2022-12-10T09:01:17;19.80;;;14.37;;
12222;SDS011;6174;49.058;8.524;2022-12-10T09:03:44;17.67;;;14.50;;
12222;SDS011;6174;49.058;8.524;2022-12-10T09:06:13;16.87;;;14.27;;
12222;SDS011;6174;49.058;8.524;2022-12-10T09:08:41;16.97;;;14.67;;
12222;SDS011;6174;49.058;8.524;2022-12-10T09:11:10;18.50;;;14.80;;
12222;SDS011;6174;49.058;8.524;2022-12-10T09:13:40;15.97;;;14.27;;
12222;SDS011;6174;49.058;8.524;2022-12-10T09:16:07;16.13;;;14.20;;
12222;SDS011;6174;49.058;8.524;2022-12-10T09:18:34;18.70;;;15.40;;
12222;SDS011;6174;49.058;8.524;2022-12-10T09:21:03;16.77;;;14.07;;
12222;SDS011;6174;49.058;8.524;2022-12-10T09:23:31;15.30;;;13.70;;
12222;SDS011;6174;49.058;8.524;2022-12-10T09:25:58;16.23;;;14.23;;
12222;SDS011;6174;49.058;8.524;2022-12-10T09:28:26;18.00;;;14.50;;
12222;SDS011;6174;49.058;8.524;2022-12-10T09:30:55;17.97;;;13.67;;
12222;SDS011;6174;49.058;8.524;2022-12-10T09:33:23;15.97;;;13.50;;
12222;SDS011;6174;49.058;8.524;2022-12-10T09:35:50;16.20;;;13.50;;
12222;SDS011;6174;49.058;8.524;2022-12-10T09:38:16;16.50;;;13.70;;
12222;SDS011;6174;49.058;8.524;2022-12-10T09:40:45;15.33;;;13.23;;
12222;SDS011;6174;49.058;8.524;2022-12-10T09:43:18;16.07;;;13.73;;
12222;SDS011;6174;49.058;8.524;2022-12-10T09:45:54;19.50;;;14.23;;
12222;SDS011;6174;49.058;8.524;2022-12-10T09:48:30;15.30;;;13.10;;
12222;SDS011;6174;49.058;8.524;2022-12-10T09:51:07;17.10;;;13.40;;
12222;SDS011;6174;49.058;8.524;2022-12-10T09:53:38;16.30;;;13.33;;
12222;SDS011;6174;49.058;8.524;2022-12-10T09:56:09;17.60;;;13.60;;
12222;SDS011;6174;49.058;8.524;2022-12-10T09:58:45;16.63;;;12.60;;
12222;SDS011;6174;49.058;8.524;2022-12-10T10:01:14;16.43;;;12.97;;
12222;SDS011;6174;49.058;8.524;2022-12-10T10:03:43;16.13;;;12.87;;
12222;SDS011;6174;49.058;8.524;2022-12-10T10:06:09;16.03;;;13.07;;
12222;SDS011;6174;49.058;8.524;2022-12-10T10:08:39;15.90;;;13.37;;
12222;SDS011;6174;49.058;8.524;2022-12-10T10:11:09;19.03;;;14.93;;
12222;SDS011;6174;49.058;8.524;2022-12-10T10:13:40;13.93;;;12.43;;
12222;SDS011;6174;49.058;8.524;2022-12-10T10:16:19;15.47;;;12.47;;
12222;SDS011;6174;49.058;8.524;2022-12-10T10:18:50;16.07;;;12.60;;
12222;SDS011;6174;49.058;8.524;2022-12-10T10:21:22;13.47;;;11.70;;
12222;SDS011;6174;49.058;8.524;2022-12-10T10:23:51;13.43;;;12.03;;
12222;SDS011;6174;49.058;8.524;2022-12-10T10:26:18;14.20;;;12.33;;
12222;SDS011;6174;49.058;8.524;2022-12-10T10:28:45;13.57;;;12.17;;
12222;SDS011;6174;49.058;8.524;2022-12-10T10:31:18;14.80;;;11.83;;
12222;SDS011;6174;49.058;8.524;2022-12-10T10:33:49;14.53;;;12.47;;
12222;SDS011;6174;49.058;8.524;2022-12-10T10:36:22;13.00;;;11.70;;
12222;SDS011;6174;49.058;8.524;2022-12-10T10:38:50;13.57;;;12.17;;
12222;SDS011;6174;49.058;8.524;2022-12-10T10:41:17;12.57;;;11.03;;
12222;SDS011;6174;49.058;8.524;2022-12-10T10:43:44;13.47;;;12.00;;
12222;SDS011;6174;49.058;8.524;2022-12-10T10:46:13;15.37;;;12.17;;
12222;SDS011;6174;49.058;8.524;2022-12-10T10:48:43;14.93;;;12.30;;
12222;SDS011;6174;49.058;8.524;2022-12-10T10:51:15;13.33;;;11.93;;
12222;SDS011;6174;49.058;8.524;2022-12-10T10:53:46;14.90;;;12.60;;
12222;SDS011;6174;49.058;8.524;2022-12-10T10:56:16;13.47;;;12.07;;
12222;SDS011;6174;49.058;8.524;2022-12-10T10:58:56;13.30;;;11.90;;
12222;SDS011;6174;49.058;8.524;2022-12-10T11:01:26;13.73;;;12.23;;
12222;SDS011;6174;49.058;8.524;2022-12-10T11:04:11;13.30;;;11.83;;
12222;SDS011;6174;49.058;8.524;2022-12-10T11:06:39;13.40;;;11.60;;
12222;SDS011;6174;49.058;8.524;2022-12-10T11:09:06;13.73;;;12.33;;
12222;SDS011;6174;49.058;8.524;2022-12-10T11:11:34;14.40;;;12.90;;
12222;SDS011;6174;49.058;8.524;2022-12-10T11:14:12;13.57;;;12.10;;
12222;SDS011;6174;49.058;8.524;2022-12-10T11:16:41;13.53;;;12.13;;
12222;SDS011;6174;49.058;8.524;2022-12-10T11:19:16;13.87;;;11.80;;
12222;SDS011;6174;49.058;8.524;2022-12-10T11:21:47;13.73;;;11.93;;
12222;SDS011;6174;49.058;8.524;2022-12-10T11:24:15;14.33;;;12.43;;
12222;SDS011;6174;49.058;8.524;2022-12-10T11:26:56;15.67;;;14.07;;
12222;SDS011;6174;49.058;8.524;2022-12-10T11:29:31;14.77;;;12.73;;
12222;SDS011;6174;49.058;8.524;2022-12-10T11:32:15;15.00;;;12.43;;
12222;SDS011;6174;49.058;8.524;2022-12-10T11:35:00;13.57;;;12.17;;
12222;SDS011;6174;49.058;8.524;2022-12-10T11:37:32;13.90;;;11.37;;
12222;SDS011;6174;49.058;8.524;2022-12-10T11:40:06;12.77;;;11.47;;
12222;SDS011;6174;49.058;8.524;2022-12-10T11:42:49;14.77;;;11.53;;
12222;SDS011;6174;49.058;8.524;2022-12-10T11:45:26;12.73;;;11.27;;
12222;SDS011;6174;49.058;8.524;2022-12-10T11:48:03;13.43;;;11.53;;
12222;SDS011;6174;49.058;8.524;2022-12-10T11:50:41;13.13;;;11.23;;
12222;SDS011;6174;49.058;8.524;2022-12-10T11:56:05;13.70;;;11.10;;
12222;SDS011;6174;49.058;8.524;2022-12-10T11:58:53;12.77;;;11.43;;
12222;SDS011;6174;49.058;8.524;2022-12-10T12:01:31;13.63;;;11.50;;
12222;SDS011;6174;49.058;8.524;2022-12-10T12:04:10;15.00;;;11.90;;
12222;SDS011;6174;49.058;8.524;2022-12-10T12:06:56;12.23;;;10.93;;
12222;SDS011;6174;49.058;8.524;2022-12-10T12:09:34;12.87;;;11.50;;
12222;SDS011;6174;49.058;8.524;2022-12-10T12:12:11;11.70;;;10.47;;
12222;SDS011;6174;49.058;8.524;2022-12-10T12:14:46;13.40;;;11.17;;
12222;SDS011;6174;49.058;8.524;2022-12-10T12:17:19;11.97;;;10.23;;
12222;SDS011;6174;49.058;8.524;2022-12-10T12:19:49;10.33;;;9.23;;
12222;SDS011;6174;49.058;8.524;2022-12-10T12:22:23;11.07;;;9.17;;
12222;SDS011;6174;49.058;8.524;2022-12-10T12:24:52;11.23;;;10.03;;
12222;SDS011;6174;49.058;8.524;2022-12-10T12:27:24;11.90;;;10.30;;
12222;SDS011;6174;49.058;8.524;2022-12-10T12:30:00;11.43;;;10.10;;
12222;SDS011;6174;49.058;8.524;2022-12-10T12:32:31;11.50;;;9.77;;
12222;SDS011;6174;49.058;8.524;2022-12-10T12:35:06;11.37;;;10.17;;
12222;SDS011;6174;49.058;8.524;2022-12-10T12:37:40;10.77;;;9.67;;
12222;SDS011;6174;49.058;8.524;2022-12-10T12:40:12;11.20;;;10.10;;
12222;SDS011;6174;49.058;8.524;2022-12-10T12:42:44;11.60;;;9.83;;
12222;SDS011;6174;49.058;8.524;2022-12-10T12:45:16;11.73;;;10.53;;
12222;SDS011;6174;49.058;8.524;2022-12-10T12:47:47;11.30;;;10.20;;
12222;SDS011;6174;49.058;8.524;2022-12-10T12:50:22;11.40;;;10.20;;
12222;SDS011;6174;49.058;8.524;2022-12-10T12:52:54;10.90;;;9.67;;
12222;SDS011;6174;49.058;8.524;2022-12-10T12:55:26;11.20;;;9.97;;
12222;SDS011;6174;49.058;8.524;2022-12-10T12:58:09;11.73;;;10.50;;
12222;SDS011;6174;49.058;8.524;2022-12-10T13:00:42;14.47;;;12.97;;
12222;SDS011;6174;49.058;8.524;2022-12-10T13:03:18;11.40;;;10.20;;
12222;SDS011;6174;49.058;8.524;2022-12-10T13:05:53;11.40;;;10.23;;
12222;SDS011;6174;49.058;8.524;2022-12-10T13:08:30;11.73;;;10.53;;
12222;SDS011;6174;49.058;8.524;2022-12-10T13:11:17;12.07;;;10.77;;
12222;SDS011;6174;49.058;8.524;2022-12-10T13:17:01;11.00;;;9.80;;
12222;SDS011;6174;49.058;8.524;2022-12-10T13:19:34;10.77;;;9.67;;
12222;SDS011;6174;49.058;8.524;2022-12-10T13:22:06;10.77;;;9.67;;
12222;SDS011;6174;49.058;8.524;2022-12-10T13:27:33;11.67;;;10.17;;
12222;SDS011;6174;49.058;8.524;2022-12-10T13:30:03;13.10;;;11.80;;
12222;SDS011;6174;49.058;8.524;2022-12-10T13:32:52;11.27;;;9.60;;
12222;SDS011;6174;49.058;8.524;2022-12-10T13:35:27;11.80;;;10.50;;
12222;SDS011;6174;49.058;8.524;2022-12-10T13:37:57;12.23;;;11.00;;
12222;SDS011;6174;49.058;8.524;2022-12-10T13:40:38;14.50;;;13.00;;
12222;SDS011;6174;49.058;8.524;2022-12-10T13:43:25;11.40;;;10.20;;
12222;SDS011;6174;49.058;8.524;2022-12-10T13:46:25;11.27;;;10.17;;
12222;SDS011;6174;49.058;8.524;2022-12-10T13:48:56;10.10;;;9.10;;
12222;SDS011;6174;49.058;8.524;2022-12-10T13:54:19;10.37;;;9.33;;
12222;SDS011;6174;49.058;8.524;2022-12-10T13:57:12;10.30;;;9.30;;
12222;SDS011;6174;49.058;8.524;2022-12-10T13:59:49;10.27;;;9.20;;
12222;SDS011;6174;49.058;8.524;2022-12-10T14:02:26;10.03;;;9.03;;
12222;SDS011;6174;49.058;8.524;2022-12-10T14:05:15;9.47;;;8.53;;
12222;SDS011;6174;49.058;8.524;2022-12-10T14:08:03;9.53;;;8.53;;
12222;SDS011;6174;49.058;8.524;2022-12-10T14:10:32;9.33;;;8.43;;
12222;SDS011;6174;49.058;8.524;2022-12-10T14:13:03;9.73;;;8.80;;
12222;SDS011;6174;49.058;8.524;2022-12-10T14:15:34;9.87;;;8.87;;
12222;SDS011;6174;49.058;8.524;2022-12-10T14:18:04;10.03;;;9.13;;
12222;SDS011;6174;49.058;8.524;2022-12-10T14:20:38;9.43;;;8.53;;
12222;SDS011;6174;49.058;8.524;2022-12-10T14:23:19;9.80;;;8.80;;
12222;SDS011;6174;49.058;8.524;2022-12-10T14:25:59;9.33;;;8.43;;
12222;SDS011;6174;49.058;8.524;2022-12-10T14:28:31;9.20;;;8.30;;
12222;SDS011;6174;49.058;8.524;2022-12-10T14:30:59;10.00;;;9.00;;
12222;SDS011;6174;49.058;8.524;2022-12-10T14:33:26;10.00;;;8.70;;
12222;SDS011;6174;49.058;8.524;2022-12-10T14:35:53;8.87;;;7.97;;
12222;SDS011;6174;49.058;8.524;2022-12-10T14:38:20;9.33;;;8.43;;
12222;SDS011;6174;49.058;8.524;2022-12-10T14:40:52;9.40;;;8.30;;
12222;SDS011;6174;49.058;8.524;2022-12-10T14:43:21;9.93;;;8.67;;
12222;SDS011;6174;49.058;8.524;2022-12-10T14:45:52;10.03;;;9.03;;
12222;SDS011;6174;49.058;8.524;2022-12-10T14:48:24;9.43;;;8.43;;
12222;SDS011;6174;49.058;8.524;2022-12-10T14:50:52;9.90;;;8.53;;
12222;SDS011;6174;49.058;8.524;2022-12-10T14:53:20;9.47;;;8.47;;
12222;SDS011;6174;49.058;8.524;2022-12-10T14:55:50;9.73;;;8.77;;
12222;SDS011;6174;49.058;8.524;2022-12-10T14:58:24;9.53;;;8.10;;
12222;SDS011;6174;49.058;8.524;2022-12-10T15:00:58;10.37;;;9.33;;
12222;SDS011;6174;49.058;8.524;2022-12-10T15:03:26;9.43;;;8.43;;
12222;SDS011;6174;49.058;8.524;2022-12-10T15:05:55;9.80;;;8.63;;
12222;SDS011;6174;49.058;8.524;2022-12-10T15:08:23;9.43;;;8.53;;
12222;SDS011;6174;49.058;8.524;2022-12-10T15:10:53;9.50;;;8.53;;
12222;SDS011;6174;49.058;8.524;2022-12-10T15:13:23;9.57;;;8.57;;
12222;SDS011;6174;49.058;8.524;2022-12-10T15:15:54;10.83;;;8.87;;
12222;SDS011;6174;49.058;8.524;2022-12-10T15:18:25;10.20;;;9.20;;
12222;SDS011;6174;49.058;8.524;2022-12-10T15:21:02;13.13;;;8.83;;
12222;SDS011;6174;49.058;8.524;2022-12-10T15:23:32;8.73;;;7.93;;
12222;SDS011;6174;49.058;8.524;2022-12-10T15:26:03;9.20;;;8.40;;
12222;SDS011;6174;49.058;8.524;2022-12-10T15:28:36;8.73;;;7.87;;
12222;SDS011;6174;49.058;8.524;2022-12-10T15:31:11;9.43;;;8.53;;
12222;SDS011;6174;49.058;8.524;2022-12-10T15:33:43;9.03;;;8.13;;
12222;SDS011;6174;49.058;8.524;2022-12-10T15:36:16;9.03;;;8.13;;
12222;SDS011;6174;49.058;8.524;2022-12-10T15:38:46;9.07;;;8.17;;
12222;SDS011;6174;49.058;8.524;2022-12-10T15:41:21;8.83;;;8.00;;
12222;SDS011;6174;49.058;8.524;2022-12-10T15:43:57;9.47;;;8.57;;
12222;SDS011;6174;49.058;8.524;2022-12-10T15:46:26;9.37;;;8.37;;
12222;SDS011;6174;49.058;8.524;2022-12-10T15:48:54;9.13;;;8.23;;
12222;SDS011;6174;49.058;8.524;2022-12-10T15:51:21;8.23;;;7.43;;
12222;SDS011;6174;49.058;8.524;2022-12-10T15:53:47;8.20;;;7.37;;
12222;SDS011;6174;49.058;8.524;2022-12-10T15:56:14;8.70;;;7.80;;
12222;SDS011;6174;49.058;8.524;2022-12-10T15:58:41;8.70;;;7.87;;
12222;SDS011;6174;49.058;8.524;2022-12-10T16:01:08;8.57;;;7.77;;
12222;SDS011;6174;49.058;8.524;2022-12-10T16:03:37;8.90;;;8.00;;
12222;SDS011;6174;49.058;8.524;2022-12-10T16:06:07;9.60;;;8.47;;
12222;SDS011;6174;49.058;8.524;2022-12-10T16:08:34;9.53;;;8.53;;
12222;SDS011;6174;49.058;8.524;2022-12-10T16:11:02;9.07;;;8.13;;
12222;SDS011;6174;49.058;8.524;2022-12-10T16:13:40;8.30;;;7.30;;
12222;SDS011;6174;49.058;8.524;2022-12-10T16:16:13;9.00;;;8.10;;
12222;SDS011;6174;49.058;8.524;2022-12-10T16:18:40;8.53;;;7.73;;
12222;SDS011;6174;49.058;8.524;2022-12-10T16:21:08;9.57;;;8.67;;
12222;SDS011;6174;49.058;8.524;2022-12-10T16:23:35;9.73;;;8.73;;
12222;SDS011;6174;49.058;8.524;2022-12-10T16:26:04;9.17;;;8.27;;
12222;SDS011;6174;49.058;8.524;2022-12-10T16:28:38;8.83;;;7.97;;
12222;SDS011;6174;49.058;8.524;2022-12-10T16:31:07;8.87;;;8.07;;
12222;SDS011;6174;49.058;8.524;2022-12-10T16:33:36;9.93;;;8.93;;
12222;SDS011;6174;49.058;8.524;2022-12-10T16:36:03;10.03;;;8.97;;
12222;SDS011;6174;49.058;8.524;2022-12-10T16:38:32;9.50;;;8.50;;
12222;SDS011;6174;49.058;8.524;2022-12-10T16:40:59;10.17;;;9.17;;
12222;SDS011;6174;49.058;8.524;2022-12-10T16:43:27;9.50;;;8.60;;
12222;SDS011;6174;49.058;8.524;2022-12-10T16:45:55;9.97;;;8.97;;
12222;SDS011;6174;49.058;8.524;2022-12-10T16:48:22;9.60;;;8.63;;
12222;SDS011;6174;49.058;8.524;2022-12-10T16:50:52;11.00;;;9.80;;
12222;SDS011;6174;49.058;8.524;2022-12-10T16:53:24;11.23;;;10.13;;
12222;SDS011;6174;49.058;8.524;2022-12-10T16:55:53;10.80;;;9.70;;
12222;SDS011;6174;49.058;8.524;2022-12-10T16:58:22;12.03;;;10.83;;
12222;SDS011;6174;49.058;8.524;2022-12-10T17:00:50;10.67;;;9.57;;
12222;SDS011;6174;49.058;8.524;2022-12-10T17:03:19;11.47;;;10.27;;
12222;SDS011;6174;49.058;8.524;2022-12-10T17:05:48;10.53;;;9.47;;
12222;SDS011;6174;49.058;8.524;2022-12-10T17:08:16;12.13;;;10.10;;
12222;SDS011;6174;49.058;8.524;2022-12-10T17:10:43;11.07;;;9.60;;
12222;SDS011;6174;49.058;8.524;2022-12-10T17:13:29;10.57;;;9.27;;
12222;SDS011;6174;49.058;8.524;2022-12-10T17:15:57;12.50;;;10.47;;
12222;SDS011;6174;49.058;8.524;2022-12-10T17:18:24;10.77;;;9.67;;
12222;SDS011;6174;49.058;8.524;2022-12-10T17:20:51;10.13;;;8.80;;
12222;SDS011;6174;49.058;8.524;2022-12-10T17:23:18;26.87;;;18.07;;
12222;SDS011;6174;49.058;8.524;2022-12-10T17:25:46;15.63;;;13.03;;
12222;SDS011;6174;49.058;8.524;2022-12-10T17:28:14;12.70;;;10.47;;
12222;SDS011;6174;49.058;8.524;2022-12-10T17:30:44;11.23;;;10.13;;
12222;SDS011;6174;49.058;8.524;2022-12-10T17:33:11;11.33;;;10.03;;
12222;SDS011;6174;49.058;8.524;2022-12-10T17:35:39;16.50;;;14.70;;
12222;SDS011;6174;49.058;8.524;2022-12-10T17:38:10;15.77;;;14.17;;
12222;SDS011;6174;49.058;8.524;2022-12-10T17:40:40;14.07;;;12.60;;
12222;SDS011;6174;49.058;8.524;2022-12-10T17:43:07;14.03;;;12.63;;
12222;SDS011;6174;49.058;8.524;2022-12-10T17:45:34;13.13;;;11.73;;
12222;SDS011;6174;49.058;8.524;2022-12-10T17:48:02;12.07;;;10.77;;
12222;SDS011;6174;49.058;8.524;2022-12-10T17:50:32;14.73;;;13.33;;
12222;SDS011;6174;49.058;8.524;2022-12-10T17:53:00;19.90;;;15.77;;
12222;SDS011;6174;49.058;8.524;2022-12-10T17:55:28;17.13;;;14.93;;
12222;SDS011;6174;49.058;8.524;2022-12-10T17:57:56;16.03;;;13.83;;
12222;SDS011;6174;49.058;8.524;2022-12-10T18:00:23;15.77;;;14.17;;
12222;SDS011;6174;49.058;8.524;2022-12-10T18:02:52;15.83;;;14.13;;
12222;SDS011;6174;49.058;8.524;2022-12-10T18:05:20;16.20;;;13.70;;
12222;SDS011;6174;49.058;8.524;2022-12-10T18:07:47;16.43;;;13.87;;
12222;SDS011;6174;49.058;8.524;2022-12-10T18:10:15;18.43;;;15.83;;
12222;SDS011;6174;49.058;8.524;2022-12-10T18:12:43;16.97;;;15.17;;
12222;SDS011;6174;49.058;8.524;2022-12-10T18:15:10;22.40;;;18.07;;
12222;SDS011;6174;49.058;8.524;2022-12-10T18:17:38;35.83;;;27.23;;
12222;SDS011;6174;49.058;8.524;2022-12-10T18:20:06;36.13;;;27.50;;
12222;SDS011;6174;49.058;8.524;2022-12-10T18:22:35;29.63;;;23.10;;
12222;SDS011;6174;49.058;8.524;2022-12-10T18:25:02;21.30;;;17.77;;
12222;SDS011;6174;49.058;8.524;2022-12-10T18:27:29;17.77;;;14.77;;
12222;SDS011;6174;49.058;8.524;2022-12-10T18:29:56;14.13;;;12.63;;
12222;SDS011;6174;49.058;8.524;2022-12-10T18:32:23;14.83;;;13.03;;
12222;SDS011;6174;49.058;8.524;2022-12-10T18:34:52;13.37;;;11.80;;
12222;SDS011;6174;49.058;8.524;2022-12-10T18:37:19;14.13;;;12.60;;
12222;SDS011;6174;49.058;8.524;2022-12-10T18:39:47;12.80;;;11.50;;
12222;SDS011;6174;49.058;8.524;2022-12-10T18:42:14;14.23;;;12.30;;
12222;SDS011;6174;49.058;8.524;2022-12-10T18:44:42;12.73;;;11.27;;
12222;SDS011;6174;49.058;8.524;2022-12-10T18:47:12;13.70;;;12.30;;
12222;SDS011;6174;49.058;8.524;2022-12-10T18:49:38;13.03;;;11.63;;
12222;SDS011;6174;49.058;8.524;2022-12-10T18:52:05;13.40;;;12.00;;
12222;SDS011;6174;49.058;8.524;2022-12-10T18:54:32;12.27;;;10.97;;
12222;SDS011;6174;49.058;8.524;2022-12-10T18:57:00;12.60;;;10.67;;
12222;SDS011;6174;49.058;8.524;2022-12-10T18:59:27;13.07;;;11.60;;
12222;SDS011;6174;49.058;8.524;2022-12-10T19:01:54;12.53;;;11.07;;
12222;SDS011;6174;49.058;8.524;2022-12-10T19:04:20;11.93;;;10.70;;
12222;SDS011;6174;49.058;8.524;2022-12-10T19:06:47;14.03;;;12.30;;
12222;SDS011;6174;49.058;8.524;2022-12-10T19:09:14;15.17;;;11.57;;
12222;SDS011;6174;49.058;8.524;2022-12-10T19:11:43;13.37;;;11.67;;
12222;SDS011;6174;49.058;8.524;2022-12-10T19:14:12;14.47;;;12.23;;
12222;SDS011;6174;49.058;8.524;2022-12-10T19:16:39;15.90;;;13.23;;
12222;SDS011;6174;49.058;8.524;2022-12-10T19:19:08;15.63;;;12.30;;
12222;SDS011;6174;49.058;8.524;2022-12-10T19:21:36;15.70;;;13.23;;
12222;SDS011;6174;49.058;8.524;2022-12-10T19:24:03;14.33;;;12.57;;
12222;SDS011;6174;49.058;8.524;2022-12-10T19:26:31;15.60;;;13.60;;
12222;SDS011;6174;49.058;8.524;2022-12-10T19:28:59;15.87;;;13.60;;
12222;SDS011;6174;49.058;8.524;2022-12-10T19:31:28;16.17;;;14.47;;
12222;SDS011;6174;49.058;8.524;2022-12-10T19:33:55;17.07;;;14.60;;
12222;SDS011;6174;49.058;8.524;2022-12-10T19:36:23;16.67;;;14.13;;
12222;SDS011;6174;49.058;8.524;2022-12-10T19:38:51;18.23;;;16.30;;
12222;SDS011;6174;49.058;8.524;2022-12-10T19:41:19;16.43;;;14.40;;
12222;SDS011;6174;49.058;8.524;2022-12-10T19:43:47;19.23;;;16.17;;
12222;SDS011;6174;49.058;8.524;2022-12-10T19:46:14;21.03;;;17.90;;
12222;SDS011;6174;49.058;8.524;2022-12-10T19:48:43;23.17;;;19.73;;
12222;SDS011;6174;49.058;8.524;2022-12-10T19:51:11;23.03;;;18.83;;
12222;SDS011;6174;49.058;8.524;2022-12-10T19:53:38;22.23;;;18.57;;
12222;SDS011;6174;49.058;8.524;2022-12-10T19:56:10;24.43;;;21.30;;
12222;SDS011;6174;49.058;8.524;2022-12-10T19:58:44;23.73;;;20.33;;
12222;SDS011;6174;49.058;8.524;2022-12-10T20:01:11;24.83;;;21.57;;
12222;SDS011;6174;49.058;8.524;2022-12-10T20:03:38;23.57;;;20.30;;
12222;SDS011;6174;49.058;8.524;2022-12-10T20:06:09;23.83;;;19.53;;
12222;SDS011;6174;49.058;8.524;2022-12-10T20:08:38;24.70;;;20.83;;
12222;SDS011;6174;49.058;8.524;2022-12-10T20:11:05;21.70;;;19.40;;
12222;SDS011;6174;49.058;8.524;2022-12-10T20:13:32;20.97;;;18.57;;
12222;SDS011;6174;49.058;8.524;2022-12-10T20:15:59;23.10;;;18.73;;
12222;SDS011;6174;49.058;8.524;2022-12-10T20:18:26;22.10;;;19.70;;
12222;SDS011;6174;49.058;8.524;2022-12-10T20:20:53;23.20;;;18.57;;
12222;SDS011;6174;49.058;8.524;2022-12-10T20:23:21;27.83;;;21.93;;
12222;SDS011;6174;49.058;8.524;2022-12-10T20:25:48;26.10;;;21.40;;
12222;SDS011;6174;49.058;8.524;2022-12-10T20:28:15;25.87;;;21.63;;
12222;SDS011;6174;49.058;8.524;2022-12-10T20:30:42;25.13;;;20.73;;
12222;SDS011;6174;49.058;8.524;2022-12-10T20:33:10;23.83;;;19.77;;
12222;SDS011;6174;49.058;8.524;2022-12-10T20:35:37;23.60;;;19.77;;
12222;SDS011;6174;49.058;8.524;2022-12-10T20:38:03;23.83;;;19.90;;
12222;SDS011;6174;49.058;8.524;2022-12-10T20:40:31;23.07;;;20.50;;
12222;SDS011;6174;49.058;8.524;2022-12-10T20:42:58;26.67;;;21.47;;
12222;SDS011;6174;49.058;8.524;2022-12-10T20:45:25;24.50;;;21.23;;
12222;SDS011;6174;49.058;8.524;2022-12-10T20:47:52;25.83;;;21.53;;
12222;SDS011;6174;49.058;8.524;2022-12-10T20:50:18;25.77;;;21.70;;
12222;SDS011;6174;49.058;8.524;2022-12-10T20:52:45;21.47;;;18.30;;
12222;SDS011;6174;49.058;8.524;2022-12-10T20:55:12;50.03;;;37.83;;
12222;SDS011;6174;49.058;8.524;2022-12-10T20:57:41;29.20;;;22.63;;
12222;SDS011;6174;49.058;8.524;2022-12-10T21:00:09;26.77;;;21.50;;
12222;SDS011;6174;49.058;8.524;2022-12-10T21:02:41;22.10;;;17.37;;
12222;SDS011;6174;49.058;8.524;2022-12-10T21:05:08;20.40;;;16.63;;
12222;SDS011;6174;49.058;8.524;2022-12-10T21:07:35;16.80;;;15.00;;
12222;SDS011;6174;49.058;8.524;2022-12-10T21:10:02;18.47;;;14.90;;